sensor_id;sensor_type;location;lat;lon;timestamp;P1;durP1;ratioP1;P2;durP2;ratioP2
43160;SDS011;40968;52.342;5.528;2023-10-09T00:00:23;57.35;;;18.65;;
43160;SDS011;40968;52.342;5.528;2023-10-09T00:03:20;68.38;;;20.25;;
43160;SDS011;40968;52.342;5.528;2023-10-09T00:05:48;67.47;;;20.35;;
43160;SDS011;40968;52.342;5.528;2023-10-09T00:08:18;73.18;;;21.42;;
43160;SDS011;40968;52.342;5.528;2023-10-09T00:10:46;70.80;;;21.23;;
43160;SDS011;40968;52.342;5.528;2023-10-09T00:13:19;64.20;;;20.15;;
43160;SDS011;40968;52.342;5.528;2023-10-09T00:15:52;88.50;;;23.40;;
43160;SDS011;40968;52.342;5.528;2023-10-09T00:18:23;65.22;;;21.75;;
43160;SDS011;40968;52.342;5.528;2023-10-09T00:20:54;67.80;;;18.50;;
43160;SDS011;40968;52.342;5.528;2023-10-09T00:23:26;65.90;;;21.35;;
43160;SDS011;40968;52.342;5.528;2023-10-09T00:25:52;63.08;;;21.88;;
43160;SDS011;40968;52.342;5.528;2023-10-09T00:28:35;60.55;;;20.92;;
43160;SDS011;40968;52.342;5.528;2023-10-09T00:31:03;75.10;;;22.33;;
43160;SDS011;40968;52.342;5.528;2023-10-09T00:33:33;65.43;;;21.00;;
43160;SDS011;40968;52.342;5.528;2023-10-09T00:36:03;77.07;;;21.15;;
43160;SDS011;40968;52.342;5.528;2023-10-09T00:38:34;74.90;;;22.83;;
43160;SDS011;40968;52.342;5.528;2023-10-09T00:41:04;76.55;;;23.83;;
43160;SDS011;40968;52.342;5.528;2023-10-09T00:43:37;77.65;;;24.02;;
43160;SDS011;40968;52.342;5.528;2023-10-09T00:46:08;101.85;;;26.25;;
43160;SDS011;40968;52.342;5.528;2023-10-09T00:48:41;86.07;;;25.38;;
43160;SDS011;40968;52.342;5.528;2023-10-09T00:51:13;87.28;;;25.73;;
43160;SDS011;40968;52.342;5.528;2023-10-09T00:53:44;83.57;;;25.13;;
43160;SDS011;40968;52.342;5.528;2023-10-09T00:56:14;93.88;;;25.98;;
43160;SDS011;40968;52.342;5.528;2023-10-09T00:58:48;86.80;;;26.63;;
43160;SDS011;40968;52.342;5.528;2023-10-09T01:01:20;84.35;;;25.55;;
43160;SDS011;40968;52.342;5.528;2023-10-09T01:03:52;81.82;;;25.85;;
43160;SDS011;40968;52.342;5.528;2023-10-09T01:06:19;85.50;;;25.42;;
43160;SDS011;40968;52.342;5.528;2023-10-09T01:08:51;94.53;;;27.35;;
43160;SDS011;40968;52.342;5.528;2023-10-09T01:11:31;70.85;;;23.00;;
43160;SDS011;40968;52.342;5.528;2023-10-09T01:14:01;86.40;;;23.90;;
43160;SDS011;40968;52.342;5.528;2023-10-09T01:16:38;79.25;;;25.48;;
43160;SDS011;40968;52.342;5.528;2023-10-09T01:19:07;90.70;;;25.10;;
43160;SDS011;40968;52.342;5.528;2023-10-09T01:21:45;86.70;;;25.70;;
43160;SDS011;40968;52.342;5.528;2023-10-09T01:24:14;78.97;;;25.48;;
43160;SDS011;40968;52.342;5.528;2023-10-09T01:26:41;93.00;;;26.08;;
43160;SDS011;40968;52.342;5.528;2023-10-09T01:29:11;76.80;;;25.53;;
43160;SDS011;40968;52.342;5.528;2023-10-09T01:31:42;74.25;;;24.77;;
43160;SDS011;40968;52.342;5.528;2023-10-09T01:34:17;79.40;;;24.88;;
43160;SDS011;40968;52.342;5.528;2023-10-09T01:36:49;74.82;;;25.25;;
43160;SDS011;40968;52.342;5.528;2023-10-09T01:39:20;82.90;;;26.50;;
43160;SDS011;40968;52.342;5.528;2023-10-09T01:41:48;73.50;;;25.58;;
43160;SDS011;40968;52.342;5.528;2023-10-09T01:44:22;78.10;;;24.23;;
43160;SDS011;40968;52.342;5.528;2023-10-09T01:46:51;82.70;;;25.08;;
43160;SDS011;40968;52.342;5.528;2023-10-09T01:49:20;69.28;;;23.92;;
43160;SDS011;40968;52.342;5.528;2023-10-09T01:51:54;80.35;;;26.88;;
43160;SDS011;40968;52.342;5.528;2023-10-09T01:54:26;84.72;;;24.98;;
43160;SDS011;40968;52.342;5.528;2023-10-09T01:57:06;78.93;;;26.40;;
43160;SDS011;40968;52.342;5.528;2023-10-09T01:59:37;75.70;;;25.42;;
43160;SDS011;40968;52.342;5.528;2023-10-09T02:02:09;69.35;;;24.80;;
43160;SDS011;40968;52.342;5.528;2023-10-09T02:04:50;82.72;;;25.65;;
43160;SDS011;40968;52.342;5.528;2023-10-09T02:07:17;72.55;;;23.17;;
43160;SDS011;40968;52.342;5.528;2023-10-09T02:09:50;71.45;;;24.08;;
43160;SDS011;40968;52.342;5.528;2023-10-09T02:12:19;77.53;;;25.08;;
43160;SDS011;40968;52.342;5.528;2023-10-09T02:14:47;79.05;;;24.67;;
43160;SDS011;40968;52.342;5.528;2023-10-09T02:17:13;68.00;;;24.23;;
43160;SDS011;40968;52.342;5.528;2023-10-09T02:19:45;69.63;;;25.13;;
43160;SDS011;40968;52.342;5.528;2023-10-09T02:22:14;75.28;;;24.23;;
43160;SDS011;40968;52.342;5.528;2023-10-09T02:24:42;73.72;;;24.45;;
43160;SDS011;40968;52.342;5.528;2023-10-09T02:27:18;80.80;;;26.00;;
43160;SDS011;40968;52.342;5.528;2023-10-09T02:29:59;77.25;;;26.15;;
43160;SDS011;40968;52.342;5.528;2023-10-09T02:32:33;77.25;;;23.88;;
43160;SDS011;40968;52.342;5.528;2023-10-09T02:35:00;65.45;;;22.98;;
43160;SDS011;40968;52.342;5.528;2023-10-09T02:37:45;72.70;;;23.90;;
43160;SDS011;40968;52.342;5.528;2023-10-09T02:40:12;72.55;;;23.75;;
43160;SDS011;40968;52.342;5.528;2023-10-09T02:42:51;81.97;;;24.98;;
43160;SDS011;40968;52.342;5.528;2023-10-09T02:45:17;62.10;;;22.73;;
43160;SDS011;40968;52.342;5.528;2023-10-09T02:47:44;77.80;;;23.02;;
43160;SDS011;40968;52.342;5.528;2023-10-09T02:50:13;66.07;;;23.52;;
43160;SDS011;40968;52.342;5.528;2023-10-09T02:52:46;72.07;;;22.55;;
43160;SDS011;40968;52.342;5.528;2023-10-09T02:55:17;68.57;;;22.70;;
43160;SDS011;40968;52.342;5.528;2023-10-09T02:57:52;63.35;;;22.98;;
43160;SDS011;40968;52.342;5.528;2023-10-09T03:00:30;70.13;;;22.70;;
43160;SDS011;40968;52.342;5.528;2023-10-09T03:03:01;76.88;;;23.15;;
43160;SDS011;40968;52.342;5.528;2023-10-09T03:05:31;64.97;;;22.38;;
43160;SDS011;40968;52.342;5.528;2023-10-09T03:07:58;70.53;;;22.00;;
43160;SDS011;40968;52.342;5.528;2023-10-09T03:10:25;67.53;;;22.67;;
43160;SDS011;40968;52.342;5.528;2023-10-09T03:12:53;71.97;;;22.40;;
43160;SDS011;40968;52.342;5.528;2023-10-09T03:15:20;64.78;;;21.10;;
43160;SDS011;40968;52.342;5.528;2023-10-09T03:17:46;69.25;;;22.23;;
43160;SDS011;40968;52.342;5.528;2023-10-09T03:20:14;64.32;;;20.90;;
43160;SDS011;40968;52.342;5.528;2023-10-09T03:22:42;59.25;;;22.02;;
43160;SDS011;40968;52.342;5.528;2023-10-09T03:25:10;63.70;;;21.35;;
43160;SDS011;40968;52.342;5.528;2023-10-09T03:27:39;62.20;;;20.20;;
43160;SDS011;40968;52.342;5.528;2023-10-09T03:30:12;60.20;;;20.92;;
43160;SDS011;40968;52.342;5.528;2023-10-09T03:32:47;65.07;;;21.90;;
43160;SDS011;40968;52.342;5.528;2023-10-09T03:35:16;65.60;;;21.48;;
43160;SDS011;40968;52.342;5.528;2023-10-09T03:37:49;71.65;;;20.85;;
43160;SDS011;40968;52.342;5.528;2023-10-09T03:40:17;62.90;;;19.92;;
43160;SDS011;40968;52.342;5.528;2023-10-09T03:42:44;58.80;;;20.40;;
43160;SDS011;40968;52.342;5.528;2023-10-09T03:45:12;64.43;;;21.42;;
43160;SDS011;40968;52.342;5.528;2023-10-09T03:47:49;59.78;;;20.23;;
43160;SDS011;40968;52.342;5.528;2023-10-09T03:50:23;63.28;;;20.88;;
43160;SDS011;40968;52.342;5.528;2023-10-09T03:53:00;59.15;;;21.67;;
43160;SDS011;40968;52.342;5.528;2023-10-09T03:55:29;58.72;;;19.20;;
43160;SDS011;40968;52.342;5.528;2023-10-09T03:57:57;58.78;;;20.63;;
43160;SDS011;40968;52.342;5.528;2023-10-09T04:00:27;57.22;;;19.25;;
43160;SDS011;40968;52.342;5.528;2023-10-09T04:02:55;62.03;;;19.52;;
43160;SDS011;40968;52.342;5.528;2023-10-09T04:05:22;61.15;;;18.70;;
43160;SDS011;40968;52.342;5.528;2023-10-09T04:07:49;54.92;;;19.08;;
43160;SDS011;40968;52.342;5.528;2023-10-09T04:10:18;57.50;;;18.98;;
43160;SDS011;40968;52.342;5.528;2023-10-09T04:13:08;49.85;;;17.48;;
43160;SDS011;40968;52.342;5.528;2023-10-09T04:15:38;55.53;;;18.70;;
43160;SDS011;40968;52.342;5.528;2023-10-09T04:18:07;53.30;;;18.60;;
43160;SDS011;40968;52.342;5.528;2023-10-09T04:20:40;52.78;;;17.75;;
43160;SDS011;40968;52.342;5.528;2023-10-09T04:23:43;59.97;;;17.90;;
43160;SDS011;40968;52.342;5.528;2023-10-09T04:26:27;47.15;;;16.33;;
43160;SDS011;40968;52.342;5.528;2023-10-09T04:28:54;48.78;;;16.65;;
43160;SDS011;40968;52.342;5.528;2023-10-09T04:31:22;48.85;;;16.17;;
43160;SDS011;40968;52.342;5.528;2023-10-09T04:33:57;49.33;;;15.55;;
43160;SDS011;40968;52.342;5.528;2023-10-09T04:36:47;49.90;;;15.30;;
43160;SDS011;40968;52.342;5.528;2023-10-09T04:39:15;48.20;;;15.70;;
43160;SDS011;40968;52.342;5.528;2023-10-09T04:42:00;44.00;;;15.70;;
43160;SDS011;40968;52.342;5.528;2023-10-09T04:44:52;35.70;;;15.40;;
43160;SDS011;40968;52.342;5.528;2023-10-09T04:47:37;41.60;;;14.40;;
43160;SDS011;40968;52.342;5.528;2023-10-09T04:50:04;39.53;;;13.73;;
43160;SDS011;40968;52.342;5.528;2023-10-09T04:52:33;31.98;;;12.80;;
43160;SDS011;40968;52.342;5.528;2023-10-09T04:55:18;46.88;;;13.73;;
43160;SDS011;40968;52.342;5.528;2023-10-09T04:57:44;42.47;;;13.85;;
43160;SDS011;40968;52.342;5.528;2023-10-09T05:00:26;47.08;;;13.27;;
43160;SDS011;40968;52.342;5.528;2023-10-09T05:03:13;37.38;;;12.25;;
43160;SDS011;40968;52.342;5.528;2023-10-09T05:05:50;40.22;;;13.00;;
43160;SDS011;40968;52.342;5.528;2023-10-09T05:08:25;39.80;;;12.85;;
43160;SDS011;40968;52.342;5.528;2023-10-09T05:10:54;40.42;;;12.23;;
43160;SDS011;40968;52.342;5.528;2023-10-09T05:13:31;40.38;;;12.52;;
43160;SDS011;40968;52.342;5.528;2023-10-09T05:16:08;38.40;;;12.10;;
43160;SDS011;40968;52.342;5.528;2023-10-09T05:18:44;37.67;;;12.32;;
43160;SDS011;40968;52.342;5.528;2023-10-09T05:21:21;40.00;;;12.77;;
43160;SDS011;40968;52.342;5.528;2023-10-09T05:24:02;39.63;;;12.57;;
43160;SDS011;40968;52.342;5.528;2023-10-09T05:26:44;40.08;;;10.73;;
43160;SDS011;40968;52.342;5.528;2023-10-09T05:29:16;36.22;;;11.35;;
43160;SDS011;40968;52.342;5.528;2023-10-09T05:31:59;30.95;;;10.35;;
43160;SDS011;40968;52.342;5.528;2023-10-09T05:34:30;31.42;;;10.82;;
43160;SDS011;40968;52.342;5.528;2023-10-09T05:37:00;30.70;;;10.48;;
43160;SDS011;40968;52.342;5.528;2023-10-09T05:39:42;29.65;;;9.45;;
43160;SDS011;40968;52.342;5.528;2023-10-09T05:42:23;28.92;;;9.63;;
43160;SDS011;40968;52.342;5.528;2023-10-09T05:44:53;35.35;;;10.15;;
43160;SDS011;40968;52.342;5.528;2023-10-09T05:47:37;36.95;;;10.50;;
43160;SDS011;40968;52.342;5.528;2023-10-09T05:50:14;32.85;;;10.68;;
43160;SDS011;40968;52.342;5.528;2023-10-09T05:52:55;35.38;;;10.30;;
43160;SDS011;40968;52.342;5.528;2023-10-09T05:55:34;42.70;;;11.25;;
43160;SDS011;40968;52.342;5.528;2023-10-09T05:58:19;35.20;;;11.30;;
43160;SDS011;40968;52.342;5.528;2023-10-09T06:00:59;35.58;;;9.68;;
43160;SDS011;40968;52.342;5.528;2023-10-09T06:03:44;32.75;;;10.32;;
43160;SDS011;40968;52.342;5.528;2023-10-09T06:06:38;27.35;;;9.23;;
43160;SDS011;40968;52.342;5.528;2023-10-09T06:09:09;24.60;;;10.30;;
43160;SDS011;40968;52.342;5.528;2023-10-09T06:12:00;29.90;;;9.75;;
43160;SDS011;40968;52.342;5.528;2023-10-09T06:14:44;31.67;;;10.43;;
43160;SDS011;40968;52.342;5.528;2023-10-09T06:17:29;34.28;;;10.20;;
43160;SDS011;40968;52.342;5.528;2023-10-09T06:20:08;26.55;;;9.75;;
43160;SDS011;40968;52.342;5.528;2023-10-09T06:22:58;31.58;;;9.05;;
43160;SDS011;40968;52.342;5.528;2023-10-09T06:25:24;33.30;;;9.18;;
43160;SDS011;40968;52.342;5.528;2023-10-09T06:27:57;28.77;;;9.35;;
43160;SDS011;40968;52.342;5.528;2023-10-09T06:30:24;27.73;;;9.25;;
43160;SDS011;40968;52.342;5.528;2023-10-09T06:32:52;25.48;;;8.95;;
43160;SDS011;40968;52.342;5.528;2023-10-09T06:35:33;27.10;;;7.85;;
43160;SDS011;40968;52.342;5.528;2023-10-09T06:38:02;29.40;;;9.90;;
43160;SDS011;40968;52.342;5.528;2023-10-09T06:40:49;26.70;;;9.43;;
43160;SDS011;40968;52.342;5.528;2023-10-09T06:43:42;23.63;;;9.05;;
43160;SDS011;40968;52.342;5.528;2023-10-09T06:46:18;39.15;;;10.25;;
43160;SDS011;40968;52.342;5.528;2023-10-09T06:49:02;27.23;;;8.95;;
43160;SDS011;40968;52.342;5.528;2023-10-09T06:51:54;26.40;;;8.40;;
43160;SDS011;40968;52.342;5.528;2023-10-09T06:54:35;30.63;;;9.63;;
43160;SDS011;40968;52.342;5.528;2023-10-09T06:57:03;26.17;;;8.35;;
43160;SDS011;40968;52.342;5.528;2023-10-09T06:59:55;20.77;;;7.85;;
43160;SDS011;40968;52.342;5.528;2023-10-09T07:02:39;23.35;;;7.80;;
43160;SDS011;40968;52.342;5.528;2023-10-09T07:05:12;24.00;;;8.63;;
43160;SDS011;40968;52.342;5.528;2023-10-09T07:07:42;27.42;;;9.40;;
43160;SDS011;40968;52.342;5.528;2023-10-09T07:10:21;24.48;;;9.00;;
43160;SDS011;40968;52.342;5.528;2023-10-09T07:12:57;28.92;;;8.60;;
43160;SDS011;40968;52.342;5.528;2023-10-09T07:15:27;28.63;;;8.90;;
43160;SDS011;40968;52.342;5.528;2023-10-09T07:18:16;25.55;;;9.10;;
43160;SDS011;40968;52.342;5.528;2023-10-09T07:20:48;26.65;;;8.38;;
43160;SDS011;40968;52.342;5.528;2023-10-09T07:23:26;27.83;;;9.55;;
43160;SDS011;40968;52.342;5.528;2023-10-09T07:26:03;25.42;;;8.93;;
43160;SDS011;40968;52.342;5.528;2023-10-09T07:28:43;26.25;;;9.50;;
43160;SDS011;40968;52.342;5.528;2023-10-09T07:31:19;28.20;;;9.07;;
43160;SDS011;40968;52.342;5.528;2023-10-09T07:36:51;34.65;;;9.30;;
43160;SDS011;40968;52.342;5.528;2023-10-09T07:39:21;27.42;;;8.57;;
43160;SDS011;40968;52.342;5.528;2023-10-09T07:41:50;28.45;;;10.18;;
43160;SDS011;40968;52.342;5.528;2023-10-09T07:44:27;24.88;;;7.82;;
43160;SDS011;40968;52.342;5.528;2023-10-09T07:47:03;24.13;;;7.85;;
43160;SDS011;40968;52.342;5.528;2023-10-09T07:49:42;28.67;;;9.55;;
43160;SDS011;40968;52.342;5.528;2023-10-09T07:52:14;28.65;;;9.20;;
43160;SDS011;40968;52.342;5.528;2023-10-09T07:54:41;29.77;;;9.00;;
43160;SDS011;40968;52.342;5.528;2023-10-09T07:57:16;24.17;;;8.55;;
43160;SDS011;40968;52.342;5.528;2023-10-09T07:59:44;26.35;;;8.70;;
43160;SDS011;40968;52.342;5.528;2023-10-09T08:02:26;28.50;;;9.43;;
43160;SDS011;40968;52.342;5.528;2023-10-09T08:04:58;26.38;;;8.35;;
43160;SDS011;40968;52.342;5.528;2023-10-09T08:07:29;28.70;;;9.07;;
43160;SDS011;40968;52.342;5.528;2023-10-09T08:10:00;31.85;;;8.40;;
43160;SDS011;40968;52.342;5.528;2023-10-09T08:12:46;30.77;;;9.65;;
43160;SDS011;40968;52.342;5.528;2023-10-09T08:15:45;20.10;;;8.70;;
43160;SDS011;40968;52.342;5.528;2023-10-09T08:18:16;26.15;;;9.10;;
43160;SDS011;40968;52.342;5.528;2023-10-09T08:20:53;25.95;;;8.63;;
43160;SDS011;40968;52.342;5.528;2023-10-09T08:23:37;28.10;;;8.63;;
43160;SDS011;40968;52.342;5.528;2023-10-09T08:26:17;24.85;;;8.73;;
43160;SDS011;40968;52.342;5.528;2023-10-09T08:28:56;30.30;;;8.88;;
43160;SDS011;40968;52.342;5.528;2023-10-09T08:31:41;29.55;;;8.23;;
43160;SDS011;40968;52.342;5.528;2023-10-09T08:34:11;32.33;;;9.25;;
43160;SDS011;40968;52.342;5.528;2023-10-09T08:36:49;24.38;;;8.20;;
43160;SDS011;40968;52.342;5.528;2023-10-09T08:39:18;23.95;;;7.88;;
43160;SDS011;40968;52.342;5.528;2023-10-09T08:41:50;29.80;;;9.20;;
43160;SDS011;40968;52.342;5.528;2023-10-09T08:44:20;22.60;;;7.93;;
43160;SDS011;40968;52.342;5.528;2023-10-09T08:46:50;34.28;;;9.02;;
43160;SDS011;40968;52.342;5.528;2023-10-09T08:49:17;25.27;;;8.95;;
43160;SDS011;40968;52.342;5.528;2023-10-09T08:51:44;23.40;;;8.02;;
43160;SDS011;40968;52.342;5.528;2023-10-09T08:54:12;23.55;;;7.72;;
43160;SDS011;40968;52.342;5.528;2023-10-09T08:56:40;29.63;;;8.23;;
43160;SDS011;40968;52.342;5.528;2023-10-09T08:59:14;29.35;;;7.95;;
43160;SDS011;40968;52.342;5.528;2023-10-09T09:01:44;26.67;;;8.10;;
43160;SDS011;40968;52.342;5.528;2023-10-09T09:07:03;24.92;;;7.28;;
43160;SDS011;40968;52.342;5.528;2023-10-09T09:09:29;25.80;;;6.93;;
43160;SDS011;40968;52.342;5.528;2023-10-09T09:11:57;22.05;;;7.18;;
43160;SDS011;40968;52.342;5.528;2023-10-09T09:14:34;21.65;;;7.45;;
43160;SDS011;40968;52.342;5.528;2023-10-09T09:17:03;26.52;;;8.25;;
43160;SDS011;40968;52.342;5.528;2023-10-09T09:19:31;29.98;;;7.88;;
43160;SDS011;40968;52.342;5.528;2023-10-09T09:21:58;20.70;;;7.28;;
43160;SDS011;40968;52.342;5.528;2023-10-09T09:24:36;30.65;;;7.63;;
43160;SDS011;40968;52.342;5.528;2023-10-09T09:27:04;25.27;;;7.35;;
43160;SDS011;40968;52.342;5.528;2023-10-09T09:29:43;24.63;;;6.97;;
43160;SDS011;40968;52.342;5.528;2023-10-09T09:32:26;26.90;;;7.93;;
43160;SDS011;40968;52.342;5.528;2023-10-09T09:35:00;27.02;;;8.30;;
43160;SDS011;40968;52.342;5.528;2023-10-09T09:37:30;19.88;;;7.28;;
43160;SDS011;40968;52.342;5.528;2023-10-09T09:40:15;40.42;;;7.82;;
43160;SDS011;40968;52.342;5.528;2023-10-09T09:42:54;34.78;;;7.63;;
43160;SDS011;40968;52.342;5.528;2023-10-09T09:45:30;25.38;;;7.50;;
43160;SDS011;40968;52.342;5.528;2023-10-09T09:48:00;30.13;;;8.27;;
43160;SDS011;40968;52.342;5.528;2023-10-09T09:50:31;26.85;;;7.82;;
43160;SDS011;40968;52.342;5.528;2023-10-09T09:52:58;27.77;;;8.27;;
43160;SDS011;40968;52.342;5.528;2023-10-09T09:55:26;19.90;;;7.20;;
43160;SDS011;40968;52.342;5.528;2023-10-09T09:58:00;23.70;;;7.85;;
43160;SDS011;40968;52.342;5.528;2023-10-09T10:00:31;28.50;;;7.90;;
43160;SDS011;40968;52.342;5.528;2023-10-09T10:03:10;24.70;;;7.05;;
43160;SDS011;40968;52.342;5.528;2023-10-09T10:05:39;25.88;;;7.00;;
43160;SDS011;40968;52.342;5.528;2023-10-09T10:08:11;31.92;;;7.25;;
43160;SDS011;40968;52.342;5.528;2023-10-09T10:10:45;23.00;;;7.00;;
43160;SDS011;40968;52.342;5.528;2023-10-09T10:13:17;22.08;;;7.63;;
43160;SDS011;40968;52.342;5.528;2023-10-09T10:16:23;23.83;;;6.72;;
43160;SDS011;40968;52.342;5.528;2023-10-09T10:19:01;26.60;;;7.22;;
43160;SDS011;40968;52.342;5.528;2023-10-09T10:21:46;26.20;;;7.18;;
43160;SDS011;40968;52.342;5.528;2023-10-09T10:27:18;24.70;;;7.93;;
43160;SDS011;40968;52.342;5.528;2023-10-09T10:32:56;19.92;;;6.63;;
43160;SDS011;40968;52.342;5.528;2023-10-09T10:35:25;18.13;;;6.15;;
43160;SDS011;40968;52.342;5.528;2023-10-09T10:38:19;19.98;;;6.85;;
43160;SDS011;40968;52.342;5.528;2023-10-09T10:40:48;23.48;;;6.90;;
43160;SDS011;40968;52.342;5.528;2023-10-09T10:43:22;20.63;;;6.80;;
43160;SDS011;40968;52.342;5.528;2023-10-09T10:46:00;21.75;;;6.68;;
43160;SDS011;40968;52.342;5.528;2023-10-09T10:48:33;22.88;;;6.63;;
43160;SDS011;40968;52.342;5.528;2023-10-09T10:51:05;24.88;;;6.20;;
43160;SDS011;40968;52.342;5.528;2023-10-09T10:53:32;27.92;;;6.40;;
43160;SDS011;40968;52.342;5.528;2023-10-09T10:56:12;25.23;;;6.95;;
43160;SDS011;40968;52.342;5.528;2023-10-09T10:58:51;17.30;;;5.57;;
43160;SDS011;40968;52.342;5.528;2023-10-09T11:01:36;31.75;;;5.97;;
43160;SDS011;40968;52.342;5.528;2023-10-09T11:04:18;24.92;;;6.32;;
43160;SDS011;40968;52.342;5.528;2023-10-09T11:06:54;18.13;;;6.05;;
43160;SDS011;40968;52.342;5.528;2023-10-09T11:09:25;23.45;;;6.10;;
43160;SDS011;40968;52.342;5.528;2023-10-09T11:12:04;17.80;;;5.63;;
43160;SDS011;40968;52.342;5.528;2023-10-09T11:14:46;22.23;;;5.88;;
43160;SDS011;40968;52.342;5.528;2023-10-09T11:17:31;21.98;;;6.38;;
43160;SDS011;40968;52.342;5.528;2023-10-09T11:19:58;18.80;;;5.82;;
43160;SDS011;40968;52.342;5.528;2023-10-09T11:22:46;24.60;;;6.03;;
43160;SDS011;40968;52.342;5.528;2023-10-09T11:25:36;24.30;;;5.55;;
43160;SDS011;40968;52.342;5.528;2023-10-09T11:28:15;23.55;;;5.75;;
43160;SDS011;40968;52.342;5.528;2023-10-09T11:30:53;26.45;;;5.93;;
43160;SDS011;40968;52.342;5.528;2023-10-09T11:33:20;18.15;;;5.95;;
43160;SDS011;40968;52.342;5.528;2023-10-09T11:35:54;18.30;;;5.95;;
43160;SDS011;40968;52.342;5.528;2023-10-09T11:38:23;25.48;;;5.72;;
43160;SDS011;40968;52.342;5.528;2023-10-09T11:40:51;18.35;;;5.25;;
43160;SDS011;40968;52.342;5.528;2023-10-09T11:43:44;24.95;;;5.90;;
43160;SDS011;40968;52.342;5.528;2023-10-09T11:46:18;16.15;;;5.72;;
43160;SDS011;40968;52.342;5.528;2023-10-09T11:49:04;21.10;;;5.13;;
43160;SDS011;40968;52.342;5.528;2023-10-09T11:51:49;21.73;;;5.97;;
43160;SDS011;40968;52.342;5.528;2023-10-09T11:54:47;23.60;;;6.05;;
43160;SDS011;40968;52.342;5.528;2023-10-09T11:57:14;18.48;;;6.38;;
43160;SDS011;40968;52.342;5.528;2023-10-09T11:59:42;19.65;;;5.90;;
43160;SDS011;40968;52.342;5.528;2023-10-09T12:02:09;24.35;;;6.60;;
43160;SDS011;40968;52.342;5.528;2023-10-09T12:04:37;22.10;;;6.22;;
43160;SDS011;40968;52.342;5.528;2023-10-09T12:07:07;19.83;;;5.93;;
43160;SDS011;40968;52.342;5.528;2023-10-09T12:09:35;26.33;;;6.75;;
43160;SDS011;40968;52.342;5.528;2023-10-09T12:12:03;21.15;;;6.18;;
43160;SDS011;40968;52.342;5.528;2023-10-09T12:14:32;19.08;;;5.93;;
43160;SDS011;40968;52.342;5.528;2023-10-09T12:17:00;25.85;;;6.78;;
43160;SDS011;40968;52.342;5.528;2023-10-09T12:19:30;24.23;;;6.85;;
43160;SDS011;40968;52.342;5.528;2023-10-09T12:21:58;21.25;;;5.90;;
43160;SDS011;40968;52.342;5.528;2023-10-09T12:24:26;16.60;;;5.45;;
43160;SDS011;40968;52.342;5.528;2023-10-09T12:26:54;18.75;;;5.75;;
43160;SDS011;40968;52.342;5.528;2023-10-09T12:29:22;17.02;;;5.40;;
43160;SDS011;40968;52.342;5.528;2023-10-09T12:31:49;20.98;;;5.65;;
43160;SDS011;40968;52.342;5.528;2023-10-09T12:34:23;25.75;;;5.75;;
43160;SDS011;40968;52.342;5.528;2023-10-09T12:36:51;20.52;;;5.90;;
43160;SDS011;40968;52.342;5.528;2023-10-09T12:39:19;24.63;;;5.80;;
43160;SDS011;40968;52.342;5.528;2023-10-09T12:41:46;19.42;;;6.43;;
43160;SDS011;40968;52.342;5.528;2023-10-09T12:44:13;19.05;;;5.80;;
43160;SDS011;40968;52.342;5.528;2023-10-09T12:46:45;28.83;;;4.97;;
43160;SDS011;40968;52.342;5.528;2023-10-09T12:49:17;20.10;;;5.20;;
43160;SDS011;40968;52.342;5.528;2023-10-09T12:51:44;19.25;;;5.93;;
43160;SDS011;40968;52.342;5.528;2023-10-09T12:54:11;16.00;;;4.95;;
43160;SDS011;40968;52.342;5.528;2023-10-09T12:56:39;17.10;;;5.40;;
43160;SDS011;40968;52.342;5.528;2023-10-09T12:59:06;19.25;;;5.30;;
43160;SDS011;40968;52.342;5.528;2023-10-09T13:01:40;29.00;;;5.28;;
43160;SDS011;40968;52.342;5.528;2023-10-09T13:04:10;23.42;;;5.63;;
43160;SDS011;40968;52.342;5.528;2023-10-09T13:06:38;18.20;;;5.30;;
43160;SDS011;40968;52.342;5.528;2023-10-09T13:09:09;43.77;;;7.10;;
43160;SDS011;40968;52.342;5.528;2023-10-09T13:11:36;20.17;;;6.10;;
43160;SDS011;40968;52.342;5.528;2023-10-09T13:14:03;28.75;;;6.90;;
43160;SDS011;40968;52.342;5.528;2023-10-09T13:16:36;26.77;;;7.97;;
43160;SDS011;40968;52.342;5.528;2023-10-09T13:19:03;20.05;;;6.40;;
43160;SDS011;40968;52.342;5.528;2023-10-09T13:21:36;19.83;;;6.25;;
43160;SDS011;40968;52.342;5.528;2023-10-09T13:24:04;23.80;;;7.15;;
43160;SDS011;40968;52.342;5.528;2023-10-09T13:26:37;26.50;;;7.75;;
43160;SDS011;40968;52.342;5.528;2023-10-09T13:29:06;28.65;;;7.30;;
43160;SDS011;40968;52.342;5.528;2023-10-09T13:31:34;26.70;;;7.97;;
43160;SDS011;40968;52.342;5.528;2023-10-09T13:34:03;32.30;;;7.78;;
43160;SDS011;40968;52.342;5.528;2023-10-09T13:36:31;22.77;;;7.32;;
43160;SDS011;40968;52.342;5.528;2023-10-09T13:39:01;27.77;;;8.45;;
43160;SDS011;40968;52.342;5.528;2023-10-09T13:41:45;26.25;;;7.57;;
43160;SDS011;40968;52.342;5.528;2023-10-09T13:44:12;23.92;;;6.40;;
43160;SDS011;40968;52.342;5.528;2023-10-09T13:46:39;25.38;;;6.72;;
43160;SDS011;40968;52.342;5.528;2023-10-09T13:49:07;21.15;;;7.25;;
43160;SDS011;40968;52.342;5.528;2023-10-09T13:51:37;25.87;;;8.10;;
43160;SDS011;40968;52.342;5.528;2023-10-09T13:54:10;27.83;;;6.90;;
43160;SDS011;40968;52.342;5.528;2023-10-09T13:56:43;20.38;;;7.03;;
43160;SDS011;40968;52.342;5.528;2023-10-09T13:59:10;23.23;;;6.63;;
43160;SDS011;40968;52.342;5.528;2023-10-09T14:01:36;17.20;;;5.88;;
43160;SDS011;40968;52.342;5.528;2023-10-09T14:04:04;15.85;;;6.28;;
43160;SDS011;40968;52.342;5.528;2023-10-09T14:06:32;23.45;;;6.15;;
43160;SDS011;40968;52.342;5.528;2023-10-09T14:09:00;20.35;;;6.07;;
43160;SDS011;40968;52.342;5.528;2023-10-09T14:11:31;23.92;;;7.00;;
43160;SDS011;40968;52.342;5.528;2023-10-09T14:14:02;19.70;;;6.35;;
43160;SDS011;40968;52.342;5.528;2023-10-09T14:16:34;25.33;;;6.38;;
43160;SDS011;40968;52.342;5.528;2023-10-09T14:19:02;21.20;;;6.13;;
43160;SDS011;40968;52.342;5.528;2023-10-09T14:21:33;34.70;;;6.10;;
43160;SDS011;40968;52.342;5.528;2023-10-09T14:24:03;23.10;;;5.88;;
43160;SDS011;40968;52.342;5.528;2023-10-09T14:26:41;18.70;;;6.40;;
43160;SDS011;40968;52.342;5.528;2023-10-09T14:29:10;21.58;;;6.10;;
43160;SDS011;40968;52.342;5.528;2023-10-09T14:31:41;28.92;;;5.78;;
43160;SDS011;40968;52.342;5.528;2023-10-09T14:34:08;23.77;;;5.97;;
43160;SDS011;40968;52.342;5.528;2023-10-09T14:36:35;21.30;;;6.03;;
43160;SDS011;40968;52.342;5.528;2023-10-09T14:39:09;23.20;;;6.57;;
43160;SDS011;40968;52.342;5.528;2023-10-09T14:41:38;17.10;;;6.13;;
43160;SDS011;40968;52.342;5.528;2023-10-09T14:44:07;29.15;;;5.82;;
43160;SDS011;40968;52.342;5.528;2023-10-09T14:46:41;17.08;;;5.03;;
43160;SDS011;40968;52.342;5.528;2023-10-09T14:49:08;21.02;;;5.53;;
43160;SDS011;40968;52.342;5.528;2023-10-09T14:54:05;16.73;;;5.35;;
43160;SDS011;40968;52.342;5.528;2023-10-09T14:56:33;20.80;;;5.32;;
43160;SDS011;40968;52.342;5.528;2023-10-09T14:59:02;17.95;;;5.90;;
43160;SDS011;40968;52.342;5.528;2023-10-09T15:01:31;23.08;;;5.50;;
43160;SDS011;40968;52.342;5.528;2023-10-09T15:03:58;18.45;;;4.97;;
43160;SDS011;40968;52.342;5.528;2023-10-09T15:06:26;19.50;;;5.53;;
43160;SDS011;40968;52.342;5.528;2023-10-09T15:08:55;17.08;;;4.80;;
43160;SDS011;40968;52.342;5.528;2023-10-09T15:11:23;19.17;;;4.72;;
43160;SDS011;40968;52.342;5.528;2023-10-09T15:13:53;12.93;;;4.57;;
43160;SDS011;40968;52.342;5.528;2023-10-09T15:16:21;17.60;;;5.05;;
43160;SDS011;40968;52.342;5.528;2023-10-09T15:18:52;17.85;;;5.00;;